Main page
METAR-TAF:

METAR-TAF

Airports :

Valencia Airport

Valencia, Spain

latitude: 39-30N, longitude: 000-28W, elevation: 69 m

Current weather observation

The report was made 23 minutes ago, at 04:30 UTC
Wind 7 kt from the West/Southwest
Temperature 13°C
Humidity 77%
Pressure 1009 hPa
Visibility 10 km or more
Scattered clouds at a height of 5000 ft

METAR: LEVC 210430Z 25007KT 9999 SCT050 13/09 Q1009 NOSIG

Time: 05:53 (04:53 UTC)

Forecast

The report was made 5 hours and 53 minutes ago, at 23:00 UTC
Forecast valid from 21 at 00 UTC to 21 at 24 UTC
Wind 8 kt from the West/Southwest
Visibility 10 km or more
Few clouds at a height of 4000 ft
Becoming
from 21 at 08 UTC to 21 at 10 UTC
Wind 12 kt from the West
Becoming
from 21 at 14 UTC to 21 at 16 UTC
Wind 5 kt from the West

TAF: LEVC 202300Z 2100/2124 25008KT 9999 FEW040 TX19/2113Z TN09/2106Z BECMG 2108/2110 27012KT BECMG 2114/2116 27005KT

Weather observations and forecasts of more than 4000 airports (METAR and TAF reports).

The available stations are represented by yellow and red dots on the map.

Hover mouse over dot to see the name of the station.

Then click to see weather observations and forecasts.

To change the map : click on the green buttons with a black cross to zoom in, on the green button with a dash to zoom out, or on the green arrows for adjacent maps.


METAR-TAF: